Decoded Metar for PAWS (WASILLA in AK, USA) (IATA:IYS) | Meteo·Mobile Aviation Weather
aviador You're here:

PAWS Decoded Metar

WASILLA in AK, USA
Report Time2019-02-16 06:56:00
UTC Time2019-02-16 07:59:56
Flight Rules vfr VFR
Wind080° at 03 kt
W.Decomp.*RWY 03: 2.7 kt HW 1.4 kt RCW
W.Rank080° ranks 3
Current wind is below 080° avg. (6.3)
Visibility9999 m
Phenomena:N/A
Clouds:N/A
Expected CloudBase > 800 ft AGL from Temp-Dew spread
CeilingNone
Temp-19°C (ISA -33)
Dew Point-21°C (84% RH)
AAT-23.7°C
QNH1020 hPa
Density Alt-4,127 ft
Elevation351 ft
Report Wrong Elevation
Raw Report
PAWS 160656Z AUTO 08003KT 10SM CLR M19/M21 A3011 RMK AO2 SLP214
T11891211 FZRANO=

Extra information for PAWS:More info

Metar Taf Metar & Taf Last 4 Metars F.Rules Stats Wind Profile Meteogram Temp Stats Airport Information Weather charts Add Link Nearby VenuesMetar ALERT Operation Metar Decoded Social comments

AIRNAV info for PAWS